sensor_id;sensor_type;location;lat;lon;timestamp;pressure;altitude;pressure_sealevel;temperature;humidity
37694;BME280;23531;50.122;8.644;2023-01-29T00:00:37;101894.56;;;3.32;51.28
37694;BME280;23531;50.122;8.644;2023-01-29T00:02:39;101898.66;;;3.36;51.01
37694;BME280;23531;50.122;8.644;2023-01-29T00:04:40;101904.94;;;3.35;51.48
37694;BME280;23531;50.122;8.644;2023-01-29T00:06:42;101899.66;;;3.24;51.51
37694;BME280;23531;50.122;8.644;2023-01-29T00:08:44;101908.03;;;3.40;51.53
37694;BME280;23531;50.122;8.644;2023-01-29T00:10:46;101913.47;;;3.50;51.45
37694;BME280;23531;50.122;8.644;2023-01-29T00:12:47;101913.72;;;3.47;51.46
37694;BME280;23531;50.122;8.644;2023-01-29T00:14:50;101906.06;;;3.53;51.52
37694;BME280;23531;50.122;8.644;2023-01-29T00:16:52;101910.41;;;3.54;51.80
37694;BME280;23531;50.122;8.644;2023-01-29T00:18:53;101909.38;;;3.67;51.76
37694;BME280;23531;50.122;8.644;2023-01-29T00:20:54;101913.34;;;3.72;51.82
37694;BME280;23531;50.122;8.644;2023-01-29T00:22:56;101914.44;;;3.70;51.32
37694;BME280;23531;50.122;8.644;2023-01-29T00:24:58;101926.56;;;3.62;50.96
37694;BME280;23531;50.122;8.644;2023-01-29T00:27:00;101925.66;;;3.52;51.43
37694;BME280;23531;50.122;8.644;2023-01-29T00:29:01;101927.22;;;3.55;51.50
37694;BME280;23531;50.122;8.644;2023-01-29T00:31:06;101935.59;;;3.07;50.78
37694;BME280;23531;50.122;8.644;2023-01-29T00:33:07;101928.91;;;2.47;52.02
37694;BME280;23531;50.122;8.644;2023-01-29T00:35:09;101927.34;;;2.45;52.99
37694;BME280;23531;50.122;8.644;2023-01-29T00:37:10;101920.34;;;2.33;52.92
37694;BME280;23531;50.122;8.644;2023-01-29T00:39:12;101925.53;;;2.45;53.54
37694;BME280;23531;50.122;8.644;2023-01-29T00:41:14;101922.97;;;2.77;53.81
37694;BME280;23531;50.122;8.644;2023-01-29T00:43:33;101912.94;;;2.92;52.88
37694;BME280;23531;50.122;8.644;2023-01-29T00:45:52;101917.75;;;2.87;52.73
37694;BME280;23531;50.122;8.644;2023-01-29T00:47:53;101920.44;;;2.76;52.90
37694;BME280;23531;50.122;8.644;2023-01-29T00:49:55;101916.88;;;3.09;53.10
37694;BME280;23531;50.122;8.644;2023-01-29T00:51:56;101909.63;;;3.11;52.31
37694;BME280;23531;50.122;8.644;2023-01-29T00:54:20;101896.75;;;3.27;51.94
37694;BME280;23531;50.122;8.644;2023-01-29T00:56:23;101907.53;;;3.25;51.53
37694;BME280;23531;50.122;8.644;2023-01-29T00:58:24;101904.28;;;3.43;51.89
37694;BME280;23531;50.122;8.644;2023-01-29T01:00:27;101907.16;;;3.51;51.74
37694;BME280;23531;50.122;8.644;2023-01-29T01:02:28;101913.00;;;3.45;51.62
37694;BME280;23531;50.122;8.644;2023-01-29T01:04:47;101906.47;;;3.49;51.23
37694;BME280;23531;50.122;8.644;2023-01-29T01:06:48;101902.84;;;3.50;51.30
37694;BME280;23531;50.122;8.644;2023-01-29T01:08:49;101897.63;;;3.48;50.89
37694;BME280;23531;50.122;8.644;2023-01-29T01:11:08;101891.34;;;3.17;50.97
37694;BME280;23531;50.122;8.644;2023-01-29T01:13:11;101884.16;;;3.29;51.64
37694;BME280;23531;50.122;8.644;2023-01-29T01:15:12;101889.81;;;3.15;51.13
37694;BME280;23531;50.122;8.644;2023-01-29T01:17:14;101892.22;;;3.39;51.35
37694;BME280;23531;50.122;8.644;2023-01-29T01:19:15;101903.91;;;3.26;50.71
37694;BME280;23531;50.122;8.644;2023-01-29T01:21:17;101896.25;;;3.33;51.05
37694;BME280;23531;50.122;8.644;2023-01-29T01:23:18;101894.47;;;3.22;50.63
37694;BME280;23531;50.122;8.644;2023-01-29T01:25:20;101888.88;;;3.37;51.03
37694;BME280;23531;50.122;8.644;2023-01-29T01:27:21;101894.59;;;3.21;50.78
37694;BME280;23531;50.122;8.644;2023-01-29T01:29:24;101890.22;;;3.31;51.24
37694;BME280;23531;50.122;8.644;2023-01-29T01:31:25;101889.25;;;3.53;51.38
37694;BME280;23531;50.122;8.644;2023-01-29T01:33:26;101882.31;;;3.41;50.64
37694;BME280;23531;50.122;8.644;2023-01-29T01:35:28;101869.97;;;3.40;50.82
37694;BME280;23531;50.122;8.644;2023-01-29T01:37:29;101871.47;;;3.33;50.98
37694;BME280;23531;50.122;8.644;2023-01-29T01:39:30;101864.56;;;3.09;50.91
37694;BME280;23531;50.122;8.644;2023-01-29T01:41:31;101857.38;;;2.89;51.45
37694;BME280;23531;50.122;8.644;2023-01-29T01:43:45;101849.28;;;2.90;51.31
37694;BME280;23531;50.122;8.644;2023-01-29T01:45:49;101847.94;;;2.96;51.58
37694;BME280;23531;50.122;8.644;2023-01-29T01:47:50;101847.34;;;2.92;51.93
37694;BME280;23531;50.122;8.644;2023-01-29T01:49:52;101847.91;;;3.07;51.63
37694;BME280;23531;50.122;8.644;2023-01-29T01:51:55;101845.50;;;3.04;51.46
37694;BME280;23531;50.122;8.644;2023-01-29T01:53:57;101839.66;;;3.10;51.72
37694;BME280;23531;50.122;8.644;2023-01-29T01:56:02;101840.41;;;3.12;51.69
37694;BME280;23531;50.122;8.644;2023-01-29T01:58:05;101842.81;;;3.15;51.73
37694;BME280;23531;50.122;8.644;2023-01-29T02:00:09;101842.47;;;3.29;51.49
37694;BME280;23531;50.122;8.644;2023-01-29T02:02:13;101843.19;;;3.32;50.99
37694;BME280;23531;50.122;8.644;2023-01-29T02:04:33;101842.75;;;3.26;51.60
37694;BME280;23531;50.122;8.644;2023-01-29T02:06:52;101842.53;;;3.18;52.01
37694;BME280;23531;50.122;8.644;2023-01-29T02:09:12;101846.88;;;3.19;51.22
37694;BME280;23531;50.122;8.644;2023-01-29T02:11:31;101843.13;;;2.90;51.54
37694;BME280;23531;50.122;8.644;2023-01-29T02:13:32;101838.44;;;2.82;51.78
37694;BME280;23531;50.122;8.644;2023-01-29T02:15:34;101842.19;;;2.80;52.39
37694;BME280;23531;50.122;8.644;2023-01-29T02:17:36;101846.56;;;2.70;52.40
37694;BME280;23531;50.122;8.644;2023-01-29T02:19:40;101836.81;;;2.70;52.50
37694;BME280;23531;50.122;8.644;2023-01-29T02:24:10;101846.63;;;2.90;52.73
37694;BME280;23531;50.122;8.644;2023-01-29T02:26:26;101848.78;;;2.97;52.90
37694;BME280;23531;50.122;8.644;2023-01-29T02:28:38;101854.59;;;2.90;52.94
37694;BME280;23531;50.122;8.644;2023-01-29T02:30:43;101852.59;;;3.15;53.00
37694;BME280;23531;50.122;8.644;2023-01-29T02:32:46;101854.84;;;3.19;52.39
37694;BME280;23531;50.122;8.644;2023-01-29T02:34:56;101856.28;;;3.23;52.83
37694;BME280;23531;50.122;8.644;2023-01-29T02:37:17;101856.25;;;3.35;52.42
37694;BME280;23531;50.122;8.644;2023-01-29T02:39:25;101859.22;;;3.41;52.32
37694;BME280;23531;50.122;8.644;2023-01-29T02:41:29;101864.81;;;3.38;51.74
37694;BME280;23531;50.122;8.644;2023-01-29T02:43:32;101877.25;;;3.38;52.18
37694;BME280;23531;50.122;8.644;2023-01-29T02:45:43;101876.78;;;3.33;51.82
37694;BME280;23531;50.122;8.644;2023-01-29T02:47:47;101884.66;;;3.34;51.85
37694;BME280;23531;50.122;8.644;2023-01-29T02:49:51;101885.97;;;3.28;51.72
37694;BME280;23531;50.122;8.644;2023-01-29T02:51:57;101881.88;;;3.36;51.64
37694;BME280;23531;50.122;8.644;2023-01-29T02:54:01;101887.31;;;3.34;52.18
37694;BME280;23531;50.122;8.644;2023-01-29T02:56:06;101880.16;;;3.35;51.87
37694;BME280;23531;50.122;8.644;2023-01-29T02:58:10;101876.97;;;3.20;52.32
37694;BME280;23531;50.122;8.644;2023-01-29T03:00:14;101877.47;;;3.14;52.04
37694;BME280;23531;50.122;8.644;2023-01-29T03:02:19;101882.16;;;3.21;52.66
37694;BME280;23531;50.122;8.644;2023-01-29T03:04:23;101886.38;;;3.24;51.69
37694;BME280;23531;50.122;8.644;2023-01-29T03:06:26;101870.75;;;2.99;52.42
37694;BME280;23531;50.122;8.644;2023-01-29T03:08:30;101868.69;;;3.02;52.41
37694;BME280;23531;50.122;8.644;2023-01-29T03:10:42;101860.72;;;3.02;51.55
37694;BME280;23531;50.122;8.644;2023-01-29T03:12:45;101855.56;;;2.89;52.14
37694;BME280;23531;50.122;8.644;2023-01-29T03:14:48;101860.09;;;2.67;52.37
37694;BME280;23531;50.122;8.644;2023-01-29T03:17:09;101858.38;;;2.77;52.97
37694;BME280;23531;50.122;8.644;2023-01-29T03:19:12;101859.81;;;2.92;53.08
37694;BME280;23531;50.122;8.644;2023-01-29T03:21:17;101874.50;;;2.96;53.02
37694;BME280;23531;50.122;8.644;2023-01-29T03:23:37;101868.44;;;3.05;52.91
37694;BME280;23531;50.122;8.644;2023-01-29T03:25:56;101862.03;;;3.08;52.93
37694;BME280;23531;50.122;8.644;2023-01-29T03:28:16;101866.50;;;3.07;52.74
37694;BME280;23531;50.122;8.644;2023-01-29T03:30:36;101875.72;;;3.03;52.72
37694;BME280;23531;50.122;8.644;2023-01-29T03:32:58;101876.34;;;3.16;52.80
37694;BME280;23531;50.122;8.644;2023-01-29T03:35:02;101887.22;;;2.92;52.94
37694;BME280;23531;50.122;8.644;2023-01-29T03:37:06;101886.56;;;2.46;52.94
37694;BME280;23531;50.122;8.644;2023-01-29T03:39:08;101894.41;;;2.36;53.75
37694;BME280;23531;50.122;8.644;2023-01-29T03:41:13;101882.94;;;2.47;53.45
37694;BME280;23531;50.122;8.644;2023-01-29T03:43:18;101876.03;;;2.67;53.32
37694;BME280;23531;50.122;8.644;2023-01-29T03:45:25;101874.47;;;3.07;53.85
37694;BME280;23531;50.122;8.644;2023-01-29T03:47:31;101871.09;;;3.05;52.84
37694;BME280;23531;50.122;8.644;2023-01-29T03:49:36;101869.69;;;2.90;53.05
37694;BME280;23531;50.122;8.644;2023-01-29T03:51:45;101856.25;;;2.60;52.92
37694;BME280;23531;50.122;8.644;2023-01-29T03:53:52;101860.88;;;2.46;53.41
37694;BME280;23531;50.122;8.644;2023-01-29T03:55:57;101863.50;;;2.58;53.57
37694;BME280;23531;50.122;8.644;2023-01-29T03:58:03;101873.09;;;2.92;53.49
37694;BME280;23531;50.122;8.644;2023-01-29T04:00:07;101878.81;;;3.08;53.11
37694;BME280;23531;50.122;8.644;2023-01-29T04:02:12;101877.72;;;3.11;52.94
37694;BME280;23531;50.122;8.644;2023-01-29T04:04:19;101876.50;;;3.15;53.23
37694;BME280;23531;50.122;8.644;2023-01-29T04:06:23;101880.47;;;3.20;53.23
37694;BME280;23531;50.122;8.644;2023-01-29T04:08:28;101889.59;;;3.27;52.98
37694;BME280;23531;50.122;8.644;2023-01-29T04:10:30;101872.25;;;3.23;52.56
37694;BME280;23531;50.122;8.644;2023-01-29T04:12:35;101874.38;;;3.29;52.79
37694;BME280;23531;50.122;8.644;2023-01-29T04:14:37;101863.13;;;3.05;52.05
37694;BME280;23531;50.122;8.644;2023-01-29T04:16:39;101849.91;;;2.83;53.07
37694;BME280;23531;50.122;8.644;2023-01-29T04:18:43;101846.81;;;2.67;52.50
37694;BME280;23531;50.122;8.644;2023-01-29T04:20:44;101840.59;;;2.34;52.73
37694;BME280;23531;50.122;8.644;2023-01-29T04:22:47;101831.41;;;2.38;53.02
37694;BME280;23531;50.122;8.644;2023-01-29T04:24:50;101831.63;;;2.58;52.97
37694;BME280;23531;50.122;8.644;2023-01-29T04:26:54;101839.13;;;2.52;52.97
37694;BME280;23531;50.122;8.644;2023-01-29T04:29:01;101837.81;;;2.47;53.38
37694;BME280;23531;50.122;8.644;2023-01-29T04:31:06;101831.50;;;2.59;53.34
37694;BME280;23531;50.122;8.644;2023-01-29T04:33:10;101831.19;;;2.30;53.46
37694;BME280;23531;50.122;8.644;2023-01-29T04:35:21;101831.91;;;2.21;54.48
37694;BME280;23531;50.122;8.644;2023-01-29T04:37:30;101844.31;;;2.43;54.69
37694;BME280;23531;50.122;8.644;2023-01-29T04:39:36;101842.47;;;2.66;54.37
37694;BME280;23531;50.122;8.644;2023-01-29T04:41:45;101851.63;;;2.73;54.06
37694;BME280;23531;50.122;8.644;2023-01-29T04:43:53;101851.13;;;2.79;54.28
37694;BME280;23531;50.122;8.644;2023-01-29T04:46:03;101858.38;;;2.77;53.92
37694;BME280;23531;50.122;8.644;2023-01-29T04:48:09;101856.22;;;2.82;54.17
37694;BME280;23531;50.122;8.644;2023-01-29T04:50:13;101852.78;;;2.91;54.35
37694;BME280;23531;50.122;8.644;2023-01-29T04:52:20;101858.22;;;2.89;53.96
37694;BME280;23531;50.122;8.644;2023-01-29T04:54:26;101863.38;;;2.70;53.94
37694;BME280;23531;50.122;8.644;2023-01-29T04:56:32;101866.09;;;2.80;54.20
37694;BME280;23531;50.122;8.644;2023-01-29T04:58:38;101871.88;;;2.85;54.12
37694;BME280;23531;50.122;8.644;2023-01-29T05:00:41;101866.56;;;2.85;54.06
37694;BME280;23531;50.122;8.644;2023-01-29T05:02:42;101865.25;;;2.79;54.00
37694;BME280;23531;50.122;8.644;2023-01-29T05:04:44;101856.34;;;2.80;53.91
37694;BME280;23531;50.122;8.644;2023-01-29T05:06:47;101854.28;;;2.73;53.63
37694;BME280;23531;50.122;8.644;2023-01-29T05:08:49;101853.31;;;2.74;53.73
37694;BME280;23531;50.122;8.644;2023-01-29T05:10:51;101856.94;;;2.73;54.08
37694;BME280;23531;50.122;8.644;2023-01-29T05:12:55;101852.84;;;2.80;54.03
37694;BME280;23531;50.122;8.644;2023-01-29T05:15:01;101859.47;;;2.74;54.20
37694;BME280;23531;50.122;8.644;2023-01-29T05:17:03;101850.66;;;2.74;54.26
37694;BME280;23531;50.122;8.644;2023-01-29T05:19:08;101856.47;;;2.68;53.76
37694;BME280;23531;50.122;8.644;2023-01-29T05:21:10;101858.16;;;2.69;53.98
37694;BME280;23531;50.122;8.644;2023-01-29T05:23:14;101850.56;;;2.64;54.10
37694;BME280;23531;50.122;8.644;2023-01-29T05:25:20;101834.28;;;2.58;54.12
37694;BME280;23531;50.122;8.644;2023-01-29T05:27:23;101833.69;;;2.54;54.25
37694;BME280;23531;50.122;8.644;2023-01-29T05:29:45;101823.94;;;2.32;54.59
37694;BME280;23531;50.122;8.644;2023-01-29T05:31:48;101827.81;;;2.17;55.09
37694;BME280;23531;50.122;8.644;2023-01-29T05:33:49;101830.84;;;2.24;55.02
37694;BME280;23531;50.122;8.644;2023-01-29T05:35:51;101836.72;;;2.27;55.57
37694;BME280;23531;50.122;8.644;2023-01-29T05:37:52;101845.06;;;2.11;55.48
37694;BME280;23531;50.122;8.644;2023-01-29T05:39:53;101847.34;;;2.16;55.63
37694;BME280;23531;50.122;8.644;2023-01-29T05:41:54;101849.75;;;2.41;55.56
37694;BME280;23531;50.122;8.644;2023-01-29T05:43:55;101854.59;;;2.47;55.39
37694;BME280;23531;50.122;8.644;2023-01-29T05:45:57;101858.19;;;2.58;55.18
37694;BME280;23531;50.122;8.644;2023-01-29T05:48:00;101848.44;;;2.47;55.05
37694;BME280;23531;50.122;8.644;2023-01-29T05:50:01;101856.66;;;2.22;55.29
37694;BME280;23531;50.122;8.644;2023-01-29T05:52:03;101848.56;;;2.23;55.50
37694;BME280;23531;50.122;8.644;2023-01-29T05:54:04;101849.13;;;2.38;55.31
37694;BME280;23531;50.122;8.644;2023-01-29T05:56:05;101842.75;;;2.29;55.26
37694;BME280;23531;50.122;8.644;2023-01-29T05:58:07;101851.22;;;2.34;55.27
37694;BME280;23531;50.122;8.644;2023-01-29T06:00:08;101860.88;;;2.46;55.35
37694;BME280;23531;50.122;8.644;2023-01-29T06:02:12;101856.63;;;2.44;54.78
37694;BME280;23531;50.122;8.644;2023-01-29T06:04:14;101858.31;;;2.45;54.78
37694;BME280;23531;50.122;8.644;2023-01-29T06:06:16;101861.56;;;2.48;54.81
37694;BME280;23531;50.122;8.644;2023-01-29T06:08:17;101855.91;;;2.31;54.95
37694;BME280;23531;50.122;8.644;2023-01-29T06:10:19;101854.09;;;2.31;55.07
37694;BME280;23531;50.122;8.644;2023-01-29T06:12:20;101855.91;;;2.31;55.46
37694;BME280;23531;50.122;8.644;2023-01-29T06:14:21;101856.75;;;2.31;55.49
37694;BME280;23531;50.122;8.644;2023-01-29T06:16:22;101858.66;;;2.51;55.58
37694;BME280;23531;50.122;8.644;2023-01-29T06:18:24;101855.16;;;2.51;55.04
37694;BME280;23531;50.122;8.644;2023-01-29T06:20:26;101847.34;;;2.38;55.08
37694;BME280;23531;50.122;8.644;2023-01-29T06:22:28;101845.50;;;2.50;55.05
37694;BME280;23531;50.122;8.644;2023-01-29T06:24:29;101842.59;;;2.64;55.02
37694;BME280;23531;50.122;8.644;2023-01-29T06:26:31;101842.00;;;2.61;54.75
37694;BME280;23531;50.122;8.644;2023-01-29T06:28:33;101843.09;;;2.58;54.43
37694;BME280;23531;50.122;8.644;2023-01-29T06:30:34;101842.53;;;2.21;54.52
37694;BME280;23531;50.122;8.644;2023-01-29T06:32:35;101846.13;;;1.87;55.69
37694;BME280;23531;50.122;8.644;2023-01-29T06:34:36;101837.00;;;2.13;56.00
37694;BME280;23531;50.122;8.644;2023-01-29T06:36:39;101830.94;;;2.33;55.52
37694;BME280;23531;50.122;8.644;2023-01-29T06:38:41;101819.38;;;2.12;55.44
37694;BME280;23531;50.122;8.644;2023-01-29T06:40:42;101826.38;;;2.13;56.06
37694;BME280;23531;50.122;8.644;2023-01-29T06:42:44;101831.56;;;2.37;56.32
37694;BME280;23531;50.122;8.644;2023-01-29T06:44:45;101832.88;;;2.31;55.62
37694;BME280;23531;50.122;8.644;2023-01-29T06:46:46;101830.22;;;2.20;55.75
37694;BME280;23531;50.122;8.644;2023-01-29T06:48:48;101835.75;;;2.28;55.97
37694;BME280;23531;50.122;8.644;2023-01-29T06:50:50;101833.19;;;2.49;55.70
37694;BME280;23531;50.122;8.644;2023-01-29T06:52:55;101840.06;;;2.63;55.46
37694;BME280;23531;50.122;8.644;2023-01-29T06:54:56;101834.78;;;2.40;55.83
37694;BME280;23531;50.122;8.644;2023-01-29T06:56:57;101842.50;;;2.54;55.44
37694;BME280;23531;50.122;8.644;2023-01-29T06:58:59;101844.41;;;2.64;55.06
37694;BME280;23531;50.122;8.644;2023-01-29T07:01:03;101848.28;;;2.48;55.70
37694;BME280;23531;50.122;8.644;2023-01-29T07:03:05;101850.72;;;2.40;55.81
37694;BME280;23531;50.122;8.644;2023-01-29T07:05:06;101849.28;;;2.36;55.58
37694;BME280;23531;50.122;8.644;2023-01-29T07:07:08;101848.56;;;2.34;55.96
37694;BME280;23531;50.122;8.644;2023-01-29T07:09:13;101859.75;;;2.38;55.89
37694;BME280;23531;50.122;8.644;2023-01-29T07:11:14;101865.91;;;2.27;56.09
37694;BME280;23531;50.122;8.644;2023-01-29T07:13:16;101867.50;;;2.18;56.25
37694;BME280;23531;50.122;8.644;2023-01-29T07:15:18;101870.75;;;2.22;56.69
37694;BME280;23531;50.122;8.644;2023-01-29T07:17:20;101879.06;;;2.17;56.48
37694;BME280;23531;50.122;8.644;2023-01-29T07:19:21;101882.78;;;2.04;56.81
37694;BME280;23531;50.122;8.644;2023-01-29T07:21:23;101876.69;;;2.26;56.88
37694;BME280;23531;50.122;8.644;2023-01-29T07:23:24;101871.94;;;2.40;56.60
37694;BME280;23531;50.122;8.644;2023-01-29T07:25:26;101872.19;;;2.60;56.20
37694;BME280;23531;50.122;8.644;2023-01-29T07:27:29;101869.38;;;2.72;56.08
37694;BME280;23531;50.122;8.644;2023-01-29T07:29:30;101877.34;;;2.72;56.28
37694;BME280;23531;50.122;8.644;2023-01-29T07:31:31;101877.84;;;2.66;55.50
37694;BME280;23531;50.122;8.644;2023-01-29T07:33:33;101881.84;;;2.49;56.04
37694;BME280;23531;50.122;8.644;2023-01-29T07:35:35;101885.09;;;2.64;56.00
37694;BME280;23531;50.122;8.644;2023-01-29T07:37:37;101893.28;;;2.72;56.25
37694;BME280;23531;50.122;8.644;2023-01-29T07:39:38;101887.34;;;2.80;55.88
37694;BME280;23531;50.122;8.644;2023-01-29T07:41:41;101892.94;;;2.43;55.98
37694;BME280;23531;50.122;8.644;2023-01-29T07:43:42;101872.19;;;2.37;56.17
37694;BME280;23531;50.122;8.644;2023-01-29T07:45:43;101866.53;;;2.31;56.33
37694;BME280;23531;50.122;8.644;2023-01-29T07:47:44;101859.19;;;2.23;56.68
37694;BME280;23531;50.122;8.644;2023-01-29T07:49:51;101854.94;;;2.32;57.18
37694;BME280;23531;50.122;8.644;2023-01-29T07:51:53;101853.00;;;2.45;56.29
37694;BME280;23531;50.122;8.644;2023-01-29T07:53:54;101847.09;;;2.41;56.18
37694;BME280;23531;50.122;8.644;2023-01-29T07:55:55;101841.19;;;2.38;56.64
37694;BME280;23531;50.122;8.644;2023-01-29T07:57:58;101839.25;;;2.40;56.30
37694;BME280;23531;50.122;8.644;2023-01-29T08:00:00;101844.97;;;2.13;56.57
37694;BME280;23531;50.122;8.644;2023-01-29T08:02:01;101836.38;;;2.21;56.87
37694;BME280;23531;50.122;8.644;2023-01-29T08:04:02;101850.94;;;2.48;56.76
37694;BME280;23531;50.122;8.644;2023-01-29T08:06:04;101855.28;;;2.49;56.06
37694;BME280;23531;50.122;8.644;2023-01-29T08:08:05;101858.28;;;2.67;56.46
37694;BME280;23531;50.122;8.644;2023-01-29T08:10:07;101857.66;;;2.75;55.87
37694;BME280;23531;50.122;8.644;2023-01-29T08:12:08;101864.03;;;2.83;55.29
37694;BME280;23531;50.122;8.644;2023-01-29T08:14:11;101883.78;;;2.47;55.33
37694;BME280;23531;50.122;8.644;2023-01-29T08:16:12;101877.75;;;2.12;55.83
37694;BME280;23531;50.122;8.644;2023-01-29T08:18:14;101891.00;;;2.01;56.63
37694;BME280;23531;50.122;8.644;2023-01-29T08:20:15;101891.00;;;2.01;56.81
37694;BME280;23531;50.122;8.644;2023-01-29T08:22:17;101890.28;;;1.99;56.72
37694;BME280;23531;50.122;8.644;2023-01-29T08:24:18;101873.63;;;1.97;56.63
37694;BME280;23531;50.122;8.644;2023-01-29T08:26:19;101871.22;;;2.16;57.05
37694;BME280;23531;50.122;8.644;2023-01-29T08:28:21;101863.16;;;2.17;56.38
37694;BME280;23531;50.122;8.644;2023-01-29T08:30:23;101864.97;;;2.17;56.74
37694;BME280;23531;50.122;8.644;2023-01-29T08:32:25;101860.72;;;2.14;56.45
37694;BME280;23531;50.122;8.644;2023-01-29T08:34:26;101858.81;;;2.05;56.40
37694;BME280;23531;50.122;8.644;2023-01-29T08:36:27;101865.34;;;2.12;56.40
37694;BME280;23531;50.122;8.644;2023-01-29T08:38:28;101863.03;;;2.19;56.15
37694;BME280;23531;50.122;8.644;2023-01-29T08:40:31;101868.56;;;2.38;56.47
37694;BME280;23531;50.122;8.644;2023-01-29T08:42:32;101880.28;;;2.58;55.87
37694;BME280;23531;50.122;8.644;2023-01-29T08:44:34;101881.59;;;2.52;55.54
37694;BME280;23531;50.122;8.644;2023-01-29T08:46:36;101884.50;;;2.38;55.10
37694;BME280;23531;50.122;8.644;2023-01-29T08:48:39;101886.56;;;2.12;55.84
37694;BME280;23531;50.122;8.644;2023-01-29T08:50:41;101870.88;;;2.21;56.33
37694;BME280;23531;50.122;8.644;2023-01-29T08:52:42;101854.84;;;2.33;56.46
37694;BME280;23531;50.122;8.644;2023-01-29T08:54:44;101869.06;;;2.32;55.43
37694;BME280;23531;50.122;8.644;2023-01-29T08:56:45;101878.94;;;2.41;55.81
37694;BME280;23531;50.122;8.644;2023-01-29T08:58:46;101879.91;;;2.51;55.64
37694;BME280;23531;50.122;8.644;2023-01-29T09:00:48;101879.44;;;2.58;55.71
37694;BME280;23531;50.122;8.644;2023-01-29T09:02:50;101877.75;;;2.57;55.46
37694;BME280;23531;50.122;8.644;2023-01-29T09:04:52;101879.78;;;2.42;55.05
37694;BME280;23531;50.122;8.644;2023-01-29T09:06:53;101891.50;;;2.39;55.13
37694;BME280;23531;50.122;8.644;2023-01-29T09:08:55;101892.72;;;2.35;55.15
37694;BME280;23531;50.122;8.644;2023-01-29T09:10:57;101894.75;;;2.54;55.80
37694;BME280;23531;50.122;8.644;2023-01-29T09:12:58;101896.44;;;2.66;54.97
37694;BME280;23531;50.122;8.644;2023-01-29T09:15:00;101902.97;;;2.40;55.10
37694;BME280;23531;50.122;8.644;2023-01-29T09:17:01;101913.56;;;2.40;55.28
37694;BME280;23531;50.122;8.644;2023-01-29T09:19:04;101919.00;;;2.49;55.34
37694;BME280;23531;50.122;8.644;2023-01-29T09:21:05;101912.81;;;2.71;55.72
37694;BME280;23531;50.122;8.644;2023-01-29T09:23:07;101912.47;;;2.76;54.34
37694;BME280;23531;50.122;8.644;2023-01-29T09:25:09;101916.13;;;2.52;54.20
37694;BME280;23531;50.122;8.644;2023-01-29T09:27:10;101922.16;;;2.43;54.72
37694;BME280;23531;50.122;8.644;2023-01-29T09:29:12;101919.00;;;2.38;54.17
37694;BME280;23531;50.122;8.644;2023-01-29T09:31:13;101919.50;;;2.21;55.11
37694;BME280;23531;50.122;8.644;2023-01-29T09:33:14;101934.69;;;2.30;55.20
37694;BME280;23531;50.122;8.644;2023-01-29T09:35:17;101931.69;;;2.35;55.21
37694;BME280;23531;50.122;8.644;2023-01-29T09:37:18;101939.78;;;2.55;54.93
37694;BME280;23531;50.122;8.644;2023-01-29T09:39:22;101932.44;;;2.48;54.53
37694;BME280;23531;50.122;8.644;2023-01-29T09:41:27;101926.97;;;2.38;54.63
37694;BME280;23531;50.122;8.644;2023-01-29T09:43:37;101930.97;;;2.44;54.78
37694;BME280;23531;50.122;8.644;2023-01-29T09:45:44;101930.34;;;2.40;54.43
37694;BME280;23531;50.122;8.644;2023-01-29T09:47:50;101920.69;;;2.28;54.67
37694;BME280;23531;50.122;8.644;2023-01-29T09:49:51;101916.09;;;2.19;54.76
37694;BME280;23531;50.122;8.644;2023-01-29T09:51:57;101919.50;;;2.43;54.32
37694;BME280;23531;50.122;8.644;2023-01-29T09:54:01;101926.28;;;2.47;54.53
37694;BME280;23531;50.122;8.644;2023-01-29T09:56:08;101917.69;;;2.44;53.98
37694;BME280;23531;50.122;8.644;2023-01-29T09:58:13;101919.81;;;2.72;54.68
37694;BME280;23531;50.122;8.644;2023-01-29T10:00:20;101919.44;;;2.88;54.26
37694;BME280;23531;50.122;8.644;2023-01-29T10:02:31;101921.78;;;2.70;53.61
37694;BME280;23531;50.122;8.644;2023-01-29T10:04:40;101923.81;;;2.78;53.63
37694;BME280;23531;50.122;8.644;2023-01-29T10:06:55;101919.63;;;2.42;54.05
37694;BME280;23531;50.122;8.644;2023-01-29T10:09:06;101915.84;;;2.78;54.18
37694;BME280;23531;50.122;8.644;2023-01-29T10:11:14;101900.28;;;2.62;53.53
37694;BME280;23531;50.122;8.644;2023-01-29T10:13:23;101886.63;;;2.78;54.34
37694;BME280;23531;50.122;8.644;2023-01-29T10:15:31;101877.00;;;2.66;53.76
37694;BME280;23531;50.122;8.644;2023-01-29T10:17:42;101872.03;;;2.72;54.01
37694;BME280;23531;50.122;8.644;2023-01-29T10:19:53;101865.16;;;2.81;53.80
37694;BME280;23531;50.122;8.644;2023-01-29T10:22:01;101866.97;;;2.80;53.96
37694;BME280;23531;50.122;8.644;2023-01-29T10:24:13;101868.16;;;2.76;53.38
37694;BME280;23531;50.122;8.644;2023-01-29T10:26:17;101864.94;;;2.39;54.04
37694;BME280;23531;50.122;8.644;2023-01-29T10:28:23;101865.19;;;2.59;54.81
37694;BME280;23531;50.122;8.644;2023-01-29T10:30:28;101858.38;;;2.77;54.30
37694;BME280;23531;50.122;8.644;2023-01-29T10:32:31;101864.19;;;2.71;54.04
37694;BME280;23531;50.122;8.644;2023-01-29T10:34:34;101847.44;;;2.59;54.16
37694;BME280;23531;50.122;8.644;2023-01-29T10:36:39;101845.28;;;2.53;54.32
37694;BME280;23531;50.122;8.644;2023-01-29T10:38:42;101850.25;;;2.46;54.44
37694;BME280;23531;50.122;8.644;2023-01-29T10:40:46;101841.31;;;2.47;54.75
37694;BME280;23531;50.122;8.644;2023-01-29T10:42:54;101840.25;;;2.93;54.49
37694;BME280;23531;50.122;8.644;2023-01-29T10:45:00;101838.44;;;2.82;53.20
37694;BME280;23531;50.122;8.644;2023-01-29T10:47:11;101833.38;;;2.79;53.91
37694;BME280;23531;50.122;8.644;2023-01-29T10:49:20;101829.59;;;2.93;54.19
37694;BME280;23531;50.122;8.644;2023-01-29T10:51:35;101833.50;;;3.10;53.09
37694;BME280;23531;50.122;8.644;2023-01-29T10:53:45;101825.50;;;2.89;53.40
37694;BME280;23531;50.122;8.644;2023-01-29T10:55:52;101820.00;;;2.81;53.72
37694;BME280;23531;50.122;8.644;2023-01-29T10:58:00;101818.97;;;2.93;53.47
37694;BME280;23531;50.122;8.644;2023-01-29T11:00:07;101809.66;;;2.99;53.16